createdAt,value
2023-04-12T00:00:39.861Z,12.10
2023-04-12T00:03:26.639Z,15.20
2023-04-12T00:06:12.905Z,12.70
2023-04-12T00:08:59.031Z,12.70
2023-04-12T00:11:44.778Z,12.60
2023-04-12T00:14:30.506Z,12.70
2023-04-12T00:17:16.109Z,12.70
2023-04-12T00:20:02.164Z,12.70
2023-04-12T00:22:47.621Z,12.70
2023-04-12T00:25:33.121Z,12.80
2023-04-12T00:28:18.861Z,12.70
2023-04-12T00:31:04.215Z,12.70
2023-04-12T00:33:49.882Z,12.70
2023-04-12T00:36:35.569Z,12.70
2023-04-12T00:39:21.710Z,12.80
2023-04-12T00:42:07.771Z,12.90
2023-04-12T00:44:53.394Z,12.90
2023-04-12T00:47:43.017Z,12.80
2023-04-12T00:50:28.395Z,12.70
2023-04-12T00:53:14.893Z,12.70
2023-04-12T00:56:01.767Z,12.70
2023-04-12T00:58:47.343Z,12.70
2023-04-12T01:01:32.934Z,12.70
2023-04-12T01:04:19.109Z,12.70
2023-04-12T01:07:30.854Z,12.70
2023-04-12T01:10:34.827Z,12.70
2023-04-12T01:13:41.782Z,12.70
2023-04-12T01:16:46.136Z,12.70
2023-04-12T01:19:34.216Z,12.60
2023-04-12T01:22:27.206Z,12.60
2023-04-12T01:25:12.838Z,12.60
2023-04-12T01:28:01.061Z,12.80
2023-04-12T01:30:46.741Z,12.80
2023-04-12T01:33:33.985Z,12.80
2023-04-12T01:36:21.524Z,12.70
2023-04-12T01:39:07.768Z,12.70
2023-04-12T01:41:53.417Z,12.60
2023-04-12T01:44:39.066Z,12.60
2023-04-12T01:47:25.011Z,12.70
2023-04-12T01:50:11.432Z,12.60
2023-04-12T01:53:12.481Z,12.50
2023-04-12T01:55:59.498Z,12.60
2023-04-12T01:58:48.612Z,12.70
2023-04-12T02:01:34.419Z,12.70
2023-04-12T02:04:21.158Z,12.70
2023-04-12T02:07:06.632Z,12.70
2023-04-12T02:09:52.284Z,12.60
2023-04-12T02:12:38.889Z,12.70
2023-04-12T02:15:26.017Z,12.80
2023-04-12T02:18:11.934Z,12.80
2023-04-12T02:20:57.981Z,12.80
2023-04-12T02:23:44.185Z,12.70
2023-04-12T02:26:30.366Z,12.80
2023-04-12T02:29:16.186Z,12.80
2023-04-12T02:32:03.798Z,12.80
2023-04-12T02:34:51.534Z,12.60
2023-04-12T02:37:39.379Z,12.70
2023-04-12T02:40:25.923Z,12.70
2023-04-12T02:43:11.991Z,12.80
2023-04-12T02:46:01.581Z,12.70
2023-04-12T02:48:49.873Z,12.70
2023-04-12T02:51:38.428Z,12.80
2023-04-12T02:54:24.307Z,12.80
2023-04-12T02:57:12.927Z,12.80
2023-04-12T03:00:07.471Z,12.70
2023-04-12T03:03:03.796Z,12.70
2023-04-12T03:05:52.947Z,13.40
2023-04-12T03:08:39.156Z,12.60
2023-04-12T03:11:24.642Z,12.50
2023-04-12T03:14:10.366Z,12.40
2023-04-12T03:16:56.474Z,12.40
2023-04-12T03:19:42.104Z,12.30
2023-04-12T03:22:28.156Z,12.40
2023-04-12T03:25:20.916Z,12.40
2023-04-12T03:28:13.064Z,12.30
2023-04-12T03:31:08.066Z,12.40
2023-04-12T03:34:04.842Z,12.60
2023-04-12T03:36:50.938Z,12.80
2023-04-12T03:39:41.628Z,13.10
2023-04-12T03:42:33.492Z,13.40
2023-04-12T03:45:30.192Z,13.60
2023-04-12T03:48:19.046Z,13.90
2023-04-12T03:51:12.110Z,14.10
2023-04-12T03:54:03.057Z,14.20
2023-04-12T03:56:56.643Z,14.30
2023-04-12T03:59:47.196Z,14.40
2023-04-12T04:02:33.960Z,14.50
2023-04-12T04:05:20.936Z,14.50
2023-04-12T04:08:08.266Z,14.60
2023-04-12T04:11:08.487Z,14.70
2023-04-12T04:13:58.836Z,14.80
2023-04-12T04:16:44.355Z,14.80
2023-04-12T04:19:29.972Z,14.80
2023-04-12T04:22:15.681Z,14.90
2023-04-12T04:25:03.067Z,14.90
2023-04-12T04:27:52.089Z,14.90
2023-04-12T04:30:39.462Z,14.90
2023-04-12T04:33:29.706Z,15.00
2023-04-12T04:36:16.477Z,14.90
2023-04-12T04:39:10.002Z,14.90
2023-04-12T04:42:00.048Z,15.00
2023-04-12T04:45:04.076Z,15.00
2023-04-12T04:47:56.377Z,15.00
2023-04-12T04:50:42.204Z,15.10
2023-04-12T04:53:27.892Z,15.10
2023-04-12T04:56:15.588Z,15.10
2023-04-12T04:59:03.300Z,15.10
2023-04-12T05:01:49.770Z,15.10
2023-04-12T05:04:37.004Z,15.10
2023-04-12T05:07:23.657Z,15.10
2023-04-12T05:10:10.731Z,15.10
2023-04-12T05:12:59.370Z,15.10
2023-04-12T05:15:45.599Z,15.20
2023-04-12T05:18:31.035Z,15.10
2023-04-12T05:21:16.398Z,15.10
2023-04-12T05:24:01.869Z,15.10
2023-04-12T05:26:49.367Z,15.10
2023-04-12T05:29:35.015Z,15.10
2023-04-12T05:32:21.552Z,15.20
2023-04-12T05:35:07.372Z,15.20
2023-04-12T05:37:55.139Z,15.20
2023-04-12T05:40:42.096Z,15.20
2023-04-12T05:43:28.502Z,15.20
2023-04-12T05:46:16.446Z,15.30
2023-04-12T05:49:06.637Z,15.20
2023-04-12T05:51:52.005Z,15.30
2023-04-12T05:54:40.077Z,15.30
2023-04-12T05:57:27.876Z,15.30
2023-04-12T06:00:16.677Z,15.30
2023-04-12T06:03:04.823Z,15.30
2023-04-12T06:05:51.455Z,15.30
2023-04-12T06:08:38.163Z,15.30
2023-04-12T06:11:24.230Z,15.30
2023-04-12T06:14:11.853Z,13.50
2023-04-12T06:16:57.740Z,15.30
2023-04-12T06:19:43.559Z,15.40
2023-04-12T06:22:29.341Z,15.50
2023-04-12T06:25:16.531Z,15.50
2023-04-12T06:28:04.490Z,15.50
2023-04-12T06:30:54.110Z,15.50
2023-04-12T06:33:41.049Z,15.60
2023-04-12T06:36:28.462Z,15.50
2023-04-12T06:39:16.239Z,15.60
2023-04-12T06:42:01.837Z,15.60
2023-04-12T06:44:47.722Z,15.60
2023-04-12T06:47:33.567Z,15.60
2023-04-12T06:50:18.935Z,15.70
2023-04-12T06:53:04.433Z,15.70
2023-04-12T06:55:51.617Z,15.70
2023-04-12T06:58:37.003Z,15.70
2023-04-12T07:01:22.793Z,15.70
2023-04-12T07:04:08.601Z,15.70
2023-04-12T07:06:54.157Z,15.70
2023-04-12T07:09:39.904Z,15.70
2023-04-12T07:12:25.623Z,15.70
2023-04-12T07:15:11.277Z,15.70
2023-04-12T07:17:56.882Z,15.70
2023-04-12T07:20:42.585Z,15.70
2023-04-12T07:23:28.114Z,15.70
2023-04-12T07:26:13.290Z,15.70
2023-04-12T07:28:59.269Z,11.70
2023-04-12T07:31:45.740Z,15.70
2023-04-12T07:34:31.149Z,15.80
2023-04-12T07:37:17.901Z,15.80
2023-04-12T07:40:03.725Z,15.80
2023-04-12T07:42:49.901Z,15.80
2023-04-12T07:45:39.138Z,15.80
2023-04-12T07:48:24.525Z,15.80
2023-04-12T07:51:10.413Z,15.80
2023-04-12T07:53:56.275Z,15.70
2023-04-12T07:56:42.134Z,15.80
2023-04-12T07:59:27.872Z,15.80
2023-04-12T08:02:13.512Z,15.90
2023-04-12T08:04:59.084Z,15.80
2023-04-12T08:07:44.523Z,15.80
2023-04-12T08:10:30.913Z,15.80
2023-04-12T08:13:16.620Z,15.80
2023-04-12T08:16:02.187Z,16.00
2023-04-12T08:18:47.845Z,15.90
2023-04-12T08:21:33.836Z,15.80
2023-04-12T08:24:20.098Z,15.90
2023-04-12T08:27:05.860Z,15.90
2023-04-12T08:29:52.052Z,15.90
2023-04-12T08:32:37.866Z,15.90
2023-04-12T08:35:23.655Z,15.90
2023-04-12T08:38:09.164Z,19.00
2023-04-12T08:40:54.817Z,16.00
2023-04-12T08:43:41.982Z,16.00
2023-04-12T08:46:28.313Z,16.00
2023-04-12T08:49:13.897Z,16.00
2023-04-12T08:52:09.657Z,16.00
2023-04-12T08:54:55.907Z,16.00
2023-04-12T08:57:41.927Z,16.00
2023-04-12T09:00:27.624Z,16.10
2023-04-12T09:03:13.237Z,16.10
2023-04-12T09:06:02.365Z,16.10
2023-04-12T09:08:51.934Z,16.10
2023-04-12T09:11:37.511Z,16.20
2023-04-12T09:14:24.826Z,16.20
2023-04-12T09:17:27.203Z,16.20
2023-04-12T09:20:12.894Z,16.20
2023-04-12T09:22:59.030Z,12.00
2023-04-12T09:25:53.171Z,16.30
2023-04-12T09:28:44.536Z,16.30
2023-04-12T09:31:31.217Z,13.30
2023-04-12T09:34:17.131Z,16.30
2023-04-12T09:37:13.916Z,16.30
2023-04-12T09:40:04.669Z,16.30
2023-04-12T09:42:52.035Z,19.30
2023-04-12T09:45:40.900Z,16.40
2023-04-12T09:48:27.213Z,16.30
2023-04-12T09:51:13.792Z,16.40
2023-04-12T09:54:03.531Z,16.40
2023-04-12T09:56:50.068Z,16.40
2023-04-12T09:59:40.426Z,16.40
2023-04-12T10:02:27.996Z,16.40
2023-04-12T10:05:15.003Z,16.40
2023-04-12T10:08:01.398Z,16.40
2023-04-12T10:10:48.886Z,16.40
2023-04-12T10:13:35.509Z,16.40
2023-04-12T10:16:21.819Z,16.40
2023-04-12T10:19:08.072Z,16.40
2023-04-12T10:21:56.749Z,16.40
2023-04-12T10:24:42.887Z,16.40
2023-04-12T10:27:28.592Z,16.40
2023-04-12T10:30:28.434Z,16.40
2023-04-12T10:33:15.074Z,16.40
2023-04-12T10:36:04.271Z,16.50
2023-04-12T10:39:07.553Z,16.50
2023-04-12T10:42:11.800Z,16.40
2023-04-12T10:45:17.397Z,16.50
2023-04-12T10:48:04.477Z,16.50
2023-04-12T10:51:10.071Z,16.50
2023-04-12T10:54:18.879Z,16.40
2023-04-12T10:57:05.016Z,16.50
2023-04-12T10:59:57.148Z,16.50
2023-04-12T11:03:02.062Z,16.40
2023-04-12T11:06:20.117Z,16.50
2023-04-12T11:09:33.941Z,16.50
2023-04-12T11:12:21.439Z,16.50
2023-04-12T11:15:08.301Z,16.50
2023-04-12T11:18:08.587Z,16.50
2023-04-12T11:20:54.407Z,16.50
2023-04-12T11:23:40.000Z,16.50
2023-04-12T11:26:29.741Z,16.50
2023-04-12T11:29:16.777Z,16.60
2023-04-12T11:32:10.733Z,16.60
2023-04-12T11:34:57.157Z,16.60
2023-04-12T11:37:43.629Z,16.60
2023-04-12T11:40:29.305Z,16.60
2023-04-12T11:43:19.424Z,16.70
2023-04-12T11:46:05.238Z,16.70
2023-04-12T11:48:50.873Z,16.70
2023-04-12T11:51:36.383Z,16.70
2023-04-12T11:54:27.936Z,16.70
2023-04-12T11:57:14.178Z,16.80
2023-04-12T12:00:00.370Z,16.80
2023-04-12T12:02:52.634Z,16.80
2023-04-12T12:05:50.253Z,16.80
2023-04-12T12:08:36.512Z,16.80
2023-04-12T12:11:23.718Z,16.80
2023-04-12T12:14:09.161Z,16.80
2023-04-12T12:16:56.785Z,16.70
2023-04-12T12:19:44.086Z,16.70
2023-04-12T12:22:29.597Z,16.70
2023-04-12T12:25:17.431Z,16.70
2023-04-12T12:28:05.505Z,16.70
2023-04-12T12:30:57.616Z,16.60
2023-04-12T12:33:47.008Z,16.60
2023-04-12T12:36:36.726Z,16.60
2023-04-12T12:39:22.789Z,16.60
2023-04-12T12:42:12.035Z,16.60
2023-04-12T12:44:57.569Z,16.60
2023-04-12T12:47:50.740Z,16.60
2023-04-12T12:50:37.438Z,16.60
2023-04-12T12:53:24.529Z,16.60
2023-04-12T12:56:11.472Z,16.60
2023-04-12T12:58:57.178Z,16.60
2023-04-12T13:01:43.035Z,16.60
2023-04-12T13:04:28.815Z,16.60
2023-04-12T13:07:14.784Z,16.60
2023-04-12T13:10:00.399Z,16.60
2023-04-12T13:12:46.182Z,16.60
2023-04-12T13:15:31.633Z,16.60
2023-04-12T13:18:17.191Z,16.60
2023-04-12T13:21:02.901Z,16.60
2023-04-12T13:23:48.482Z,16.60
2023-04-12T13:26:34.929Z,16.60
2023-04-12T13:29:20.494Z,16.60
2023-04-12T13:32:06.906Z,16.60
2023-04-12T13:34:52.532Z,16.60
2023-04-12T13:37:38.394Z,16.60
2023-04-12T13:40:23.846Z,16.60
2023-04-12T13:43:09.463Z,16.60
2023-04-12T13:45:55.070Z,16.60
2023-04-12T13:48:40.389Z,16.60
2023-04-12T13:51:26.767Z,16.60
2023-04-12T13:54:12.242Z,16.60
2023-04-12T13:56:58.394Z,16.60
2023-04-12T13:59:43.940Z,16.60
2023-04-12T14:02:31.460Z,16.70
2023-04-12T14:05:17.453Z,16.70
2023-04-12T14:08:03.202Z,16.70
2023-04-12T14:10:49.125Z,16.70
2023-04-12T14:13:34.566Z,16.70
2023-04-12T14:16:20.225Z,16.70
2023-04-12T14:19:06.080Z,16.70
2023-04-12T14:21:51.888Z,16.70
2023-04-12T14:24:37.479Z,16.70
2023-04-12T14:27:23.406Z,16.60
2023-04-12T14:30:09.147Z,16.70
2023-04-12T14:32:54.578Z,16.80
2023-04-12T14:35:40.064Z,16.90
2023-04-12T14:38:25.909Z,17.00
2023-04-12T14:41:12.603Z,17.00
2023-04-12T14:44:02.041Z,17.10
2023-04-12T14:46:47.719Z,17.20
2023-04-12T14:49:33.642Z,17.30
2023-04-12T14:52:19.362Z,17.40
2023-04-12T14:55:05.226Z,17.40
2023-04-12T14:57:51.259Z,17.30
2023-04-12T15:00:36.831Z,17.30
2023-04-12T15:03:22.836Z,17.30
2023-04-12T15:06:09.062Z,17.40
2023-04-12T15:08:54.722Z,17.30
2023-04-12T15:11:47.225Z,17.30
2023-04-12T15:14:33.054Z,17.40
2023-04-12T15:17:18.677Z,17.30
2023-04-12T15:20:17.230Z,17.30
2023-04-12T15:23:27.660Z,17.30
2023-04-12T15:26:14.470Z,17.30
2023-04-12T15:29:00.547Z,17.30
2023-04-12T15:31:45.996Z,17.30
2023-04-12T15:34:33.992Z,17.30
2023-04-12T15:37:19.929Z,17.30
2023-04-12T15:40:15.936Z,17.30
2023-04-12T15:43:01.387Z,17.30
2023-04-12T15:45:48.030Z,17.30
2023-04-12T15:48:35.741Z,17.20
2023-04-12T15:51:21.270Z,17.20
2023-04-12T15:54:07.122Z,17.20
2023-04-12T15:56:52.916Z,17.20
2023-04-12T15:59:39.946Z,17.70
2023-04-12T16:02:25.563Z,17.30
2023-04-12T16:05:13.474Z,17.30
2023-04-12T16:07:59.050Z,17.30
2023-04-12T16:10:44.747Z,17.30
2023-04-12T16:13:30.386Z,17.40
2023-04-12T16:16:17.791Z,17.30
2023-04-12T16:19:03.653Z,17.30
2023-04-12T16:21:49.104Z,17.30
2023-04-12T16:24:34.899Z,17.30
2023-04-12T16:27:23.084Z,17.20
2023-04-12T16:30:10.576Z,17.30
2023-04-12T16:32:56.275Z,17.20
2023-04-12T16:35:43.288Z,17.20
2023-04-12T16:38:29.108Z,17.20
2023-04-12T16:41:14.593Z,17.10
2023-04-12T16:44:01.605Z,17.10
2023-04-12T16:46:48.098Z,17.10
2023-04-12T16:49:34.107Z,17.00
2023-04-12T16:52:19.317Z,17.00
2023-04-12T16:55:05.614Z,17.00
2023-04-12T16:57:53.220Z,17.00
2023-04-12T17:00:39.027Z,17.00
2023-04-12T17:03:25.483Z,17.00
2023-04-12T17:06:10.941Z,16.90
2023-04-12T17:08:57.035Z,16.90
2023-04-12T17:11:43.311Z,16.90
2023-04-12T17:14:29.673Z,16.90
2023-04-12T17:17:15.427Z,16.90
2023-04-12T17:20:01.052Z,16.90
2023-04-12T17:22:46.963Z,16.90
2023-04-12T17:25:32.836Z,16.90
2023-04-12T17:28:18.531Z,16.80
2023-04-12T17:31:04.051Z,16.90
2023-04-12T17:33:49.460Z,16.80
2023-04-12T17:36:35.009Z,16.80
2023-04-12T17:39:20.788Z,16.70
2023-04-12T17:42:07.142Z,16.80
2023-04-12T17:44:52.821Z,16.80
2023-04-12T17:47:41.665Z,16.70
2023-04-12T17:50:27.348Z,16.70
2023-04-12T17:53:13.005Z,16.70
2023-04-12T17:55:58.723Z,16.70
2023-04-12T17:58:44.264Z,16.70
2023-04-12T18:01:31.632Z,16.70
2023-04-12T18:04:17.582Z,16.60
2023-04-12T18:07:04.456Z,16.60
2023-04-12T18:09:51.360Z,16.60
2023-04-12T18:12:38.648Z,16.60
2023-04-12T18:15:24.488Z,16.60
2023-04-12T18:18:10.002Z,16.60
2023-04-12T18:20:55.670Z,16.60
2023-04-12T18:23:41.227Z,16.60
2023-04-12T18:26:27.581Z,16.60
2023-04-12T18:29:14.514Z,16.60
2023-04-12T18:32:00.139Z,16.50
2023-04-12T18:34:45.686Z,16.50
2023-04-12T18:37:31.156Z,16.50
2023-04-12T18:40:18.150Z,16.50
2023-04-12T18:43:03.796Z,16.50
2023-04-12T18:45:49.459Z,16.50
2023-04-12T18:48:37.615Z,16.40
2023-04-12T18:51:23.897Z,16.40
2023-04-12T18:54:14.986Z,16.40
2023-04-12T18:57:01.924Z,16.40
2023-04-12T18:59:48.953Z,16.40
2023-04-12T19:02:34.606Z,16.40
2023-04-12T19:05:21.641Z,16.40
2023-04-12T19:08:07.755Z,16.30
2023-04-12T19:10:53.456Z,16.40
2023-04-12T19:13:39.343Z,16.30
2023-04-12T19:16:25.801Z,16.30
2023-04-12T19:19:11.553Z,16.30
2023-04-12T19:21:57.416Z,16.30
2023-04-12T19:24:43.100Z,16.30
2023-04-12T19:27:28.761Z,16.30
2023-04-12T19:30:14.820Z,16.20
2023-04-12T19:33:00.186Z,16.20
2023-04-12T19:35:46.449Z,16.20
2023-04-12T19:38:32.187Z,16.20
2023-04-12T19:41:18.447Z,16.20
2023-04-12T19:44:04.155Z,16.20
2023-04-12T19:46:51.680Z,16.10
2023-04-12T19:49:38.079Z,16.10
2023-04-12T19:52:23.897Z,16.20
2023-04-12T19:55:11.129Z,16.10
2023-04-12T19:57:56.778Z,16.20
2023-04-12T20:00:42.424Z,16.10
2023-04-12T20:03:28.487Z,16.10
2023-04-12T20:06:14.406Z,16.00
2023-04-12T20:09:00.427Z,16.00
2023-04-12T20:11:46.309Z,16.00
2023-04-12T20:14:35.370Z,16.00
2023-04-12T20:17:21.763Z,16.00
2023-04-12T20:20:10.793Z,16.00
2023-04-12T20:22:58.861Z,16.00
2023-04-12T20:25:48.963Z,15.90
2023-04-12T20:28:34.548Z,16.00
2023-04-12T20:31:20.347Z,15.90
2023-04-12T20:34:06.328Z,15.90
2023-04-12T20:36:54.948Z,15.90
2023-04-12T20:39:40.851Z,15.90
2023-04-12T20:42:26.617Z,15.90
2023-04-12T20:45:13.287Z,15.90
2023-04-12T20:47:59.337Z,15.90
2023-04-12T20:50:45.241Z,15.90
2023-04-12T20:53:31.096Z,15.90
2023-04-12T20:56:18.857Z,15.90
2023-04-12T20:59:04.603Z,15.20
2023-04-12T21:01:50.884Z,14.70
2023-04-12T21:04:36.657Z,14.00
2023-04-12T21:07:25.958Z,13.70
2023-04-12T21:10:14.758Z,13.50
2023-04-12T21:13:02.798Z,13.20
2023-04-12T21:15:52.480Z,12.80
2023-04-12T21:18:37.859Z,12.60
2023-04-12T21:21:23.633Z,12.40
2023-04-12T21:24:09.317Z,12.20
2023-04-12T21:26:57.065Z,12.20
2023-04-12T21:29:42.714Z,12.20
2023-04-12T21:32:29.981Z,12.10
2023-04-12T21:35:16.454Z,11.90
2023-04-12T21:38:02.171Z,11.90
2023-04-12T21:40:47.773Z,11.80
2023-04-12T21:43:33.694Z,12.00
2023-04-12T21:46:19.027Z,11.90
2023-04-12T21:49:05.175Z,11.80
2023-04-12T21:51:52.343Z,11.80
2023-04-12T21:54:38.182Z,11.60
2023-04-12T21:57:23.586Z,11.50
2023-04-12T22:00:10.065Z,11.50
2023-04-12T22:02:58.855Z,11.60
2023-04-12T22:05:51.157Z,11.50
2023-04-12T22:08:44.252Z,11.50
2023-04-12T22:11:30.531Z,11.50
2023-04-12T22:14:16.015Z,11.50
2023-04-12T22:17:01.758Z,11.50
2023-04-12T22:19:47.173Z,11.50
2023-04-12T22:22:32.524Z,11.50
2023-04-12T22:25:18.512Z,11.40
2023-04-12T22:28:04.031Z,11.30
2023-04-12T22:30:49.671Z,11.40
2023-04-12T22:33:36.906Z,11.30
2023-04-12T22:36:28.573Z,11.10
2023-04-12T22:39:15.567Z,11.20
2023-04-12T22:42:01.128Z,11.20
2023-04-12T22:44:47.113Z,11.20
2023-04-12T22:47:32.329Z,11.10
2023-04-12T22:50:18.228Z,11.10
2023-04-12T22:53:03.702Z,11.10
2023-04-12T22:55:49.612Z,11.10
2023-04-12T22:58:36.948Z,11.00
2023-04-12T23:01:22.617Z,11.00
2023-04-12T23:04:09.592Z,11.00
2023-04-12T23:06:55.444Z,11.00
2023-04-12T23:09:41.259Z,10.90
2023-04-12T23:12:26.636Z,11.00
2023-04-12T23:15:12.757Z,11.00
2023-04-12T23:18:01.641Z,11.00
2023-04-12T23:20:49.391Z,11.10
2023-04-12T23:23:35.701Z,11.10
2023-04-12T23:26:21.226Z,11.10
2023-04-12T23:29:06.704Z,11.00
2023-04-12T23:31:52.334Z,11.00
2023-04-12T23:34:37.552Z,11.00
2023-04-12T23:37:23.358Z,10.90
2023-04-12T23:40:14.095Z,10.90
2023-04-12T23:42:59.551Z,10.70
2023-04-12T23:45:45.313Z,10.70
2023-04-12T23:48:35.135Z,10.70
2023-04-12T23:51:22.014Z,10.80
2023-04-12T23:54:07.312Z,10.70
2023-04-12T23:56:53.043Z,10.70
2023-04-12T23:59:38.736Z,10.70
